createdAt,value
2022-08-31T00:04:37.731Z,14.24
2022-08-31T00:09:40.619Z,14.16
2022-08-31T00:14:44.858Z,14.09
2022-08-31T00:19:47.716Z,14.16
2022-08-31T00:24:50.519Z,13.86
2022-08-31T00:29:55.886Z,13.83
2022-08-31T00:34:58.700Z,13.72
2022-08-31T00:40:01.531Z,13.73
2022-08-31T00:45:07.863Z,13.70
2022-08-31T00:50:14.453Z,13.61
2022-08-31T00:55:22.311Z,13.52
2022-08-31T01:00:28.801Z,13.51
2022-08-31T01:05:32.438Z,13.40
2022-08-31T01:10:38.771Z,13.38
2022-08-31T01:15:54.144Z,13.38
2022-08-31T01:21:05.118Z,13.37
2022-08-31T01:26:11.895Z,13.23
2022-08-31T01:31:21.073Z,13.24
2022-08-31T01:36:24.037Z,13.34
2022-08-31T01:41:29.873Z,13.34
2022-08-31T01:46:32.788Z,13.35
2022-08-31T01:51:36.797Z,13.28
2022-08-31T01:56:43.895Z,13.34
2022-08-31T02:01:53.512Z,13.30
2022-08-31T02:06:58.450Z,13.23
2022-08-31T02:12:02.755Z,13.24
2022-08-31T02:17:05.748Z,13.29
2022-08-31T02:22:12.567Z,13.22
2022-08-31T02:27:16.754Z,13.15
2022-08-31T02:32:21.193Z,13.14
2022-08-31T02:37:24.026Z,13.07
2022-08-31T02:42:35.056Z,13.04
2022-08-31T02:47:52.987Z,13.15
2022-08-31T02:53:10.817Z,13.23
2022-08-31T02:58:20.688Z,13.18
2022-08-31T03:03:26.580Z,13.09
2022-08-31T03:08:31.128Z,12.96
2022-08-31T03:13:37.972Z,13.05
2022-08-31T03:18:41.006Z,13.10
2022-08-31T03:23:46.303Z,13.08
2022-08-31T03:28:50.617Z,13.22
2022-08-31T03:34:16.136Z,13.45
2022-08-31T03:39:19.425Z,13.56
2022-08-31T03:44:25.056Z,13.57
2022-08-31T03:49:30.505Z,13.72
2022-08-31T03:54:44.564Z,13.68
2022-08-31T03:59:53.018Z,13.66
2022-08-31T04:04:56.039Z,13.42
2022-08-31T04:10:27.847Z,13.36
2022-08-31T04:15:54.796Z,13.22
2022-08-31T04:21:20.136Z,12.91
2022-08-31T04:26:24.884Z,12.86
2022-08-31T04:31:29.855Z,12.89
2022-08-31T04:36:33.632Z,12.91
2022-08-31T04:41:39.673Z,12.85
2022-08-31T04:46:45.817Z,12.78
2022-08-31T04:51:48.708Z,12.94
2022-08-31T04:56:51.540Z,13.00
2022-08-31T05:02:05.564Z,12.96
2022-08-31T05:07:17.811Z,13.06
2022-08-31T05:12:20.738Z,13.02
2022-08-31T05:17:24.947Z,13.08
2022-08-31T05:22:29.822Z,13.21
2022-08-31T05:27:34.437Z,13.26
2022-08-31T05:32:39.387Z,13.42
2022-08-31T05:37:44.699Z,13.52
2022-08-31T05:42:47.853Z,13.61
2022-08-31T05:47:52.091Z,13.76
2022-08-31T05:52:54.971Z,13.91
2022-08-31T05:57:57.955Z,14.07
2022-08-31T06:03:02.234Z,14.39
2022-08-31T06:08:05.108Z,14.70
2022-08-31T06:13:09.299Z,14.90
2022-08-31T06:18:14.358Z,15.35
2022-08-31T06:23:17.891Z,16.04
2022-08-31T06:28:24.416Z,16.45
2022-08-31T06:33:29.257Z,16.94
2022-08-31T06:38:40.364Z,17.93
2022-08-31T06:44:06.730Z,20.55
2022-08-31T06:49:32.868Z,25.23
2022-08-31T06:54:36.516Z,27.49
2022-08-31T06:59:58.184Z,28.71
2022-08-31T07:05:25.334Z,30.26
2022-08-31T07:10:29.599Z,28.07
2022-08-31T07:15:32.460Z,25.81
2022-08-31T07:20:37.097Z,25.60
2022-08-31T07:25:46.745Z,27.33
2022-08-31T07:30:50.221Z,27.94
2022-08-31T07:35:55.558Z,29.14
2022-08-31T07:41:28.014Z,30.27
2022-08-31T07:46:32.029Z,30.37
2022-08-31T07:51:38.279Z,29.59
2022-08-31T07:56:52.745Z,28.99
2022-08-31T08:01:57.188Z,24.52
2022-08-31T08:07:05.921Z,22.71
2022-08-31T08:12:36.790Z,20.81
2022-08-31T08:18:03.284Z,20.34
2022-08-31T08:23:14.877Z,20.20
2022-08-31T08:28:39.883Z,19.71
2022-08-31T08:33:46.100Z,19.75
2022-08-31T08:38:53.949Z,19.92
2022-08-31T08:44:00.802Z,19.73
2022-08-31T08:49:16.262Z,19.67
2022-08-31T08:54:30.661Z,19.99
2022-08-31T08:59:34.516Z,20.48
2022-08-31T09:05:21.774Z,19.74
2022-08-31T09:10:45.599Z,19.66
2022-08-31T09:15:57.365Z,19.84
2022-08-31T09:21:07.727Z,20.33
2022-08-31T09:26:17.397Z,21.10
2022-08-31T09:31:39.892Z,21.17
2022-08-31T09:36:42.874Z,20.68
2022-08-31T09:41:49.818Z,20.60
2022-08-31T09:46:56.591Z,20.56
2022-08-31T09:52:19.237Z,20.29
2022-08-31T09:57:43.719Z,20.45
2022-08-31T10:02:48.403Z,20.80
2022-08-31T10:08:04.204Z,21.37
2022-08-31T10:13:14.631Z,21.71
2022-08-31T10:18:23.386Z,21.76
2022-08-31T10:23:33.220Z,21.31
2022-08-31T10:28:43.501Z,21.31
2022-08-31T10:34:13.775Z,20.92
2022-08-31T10:39:26.263Z,21.11
2022-08-31T10:44:39.243Z,21.33
2022-08-31T10:49:42.323Z,21.57
2022-08-31T10:54:55.544Z,21.34
2022-08-31T11:00:04.152Z,21.46
2022-08-31T11:05:19.749Z,21.76
2022-08-31T11:10:32.255Z,21.73
2022-08-31T11:16:17.470Z,21.95
2022-08-31T11:21:42.223Z,21.77
2022-08-31T11:26:52.384Z,21.60
2022-08-31T11:32:00.919Z,21.97
2022-08-31T11:37:07.464Z,22.73
2022-08-31T11:42:53.623Z,22.70
2022-08-31T11:47:59.403Z,22.79
2022-08-31T11:53:20.868Z,22.95
2022-08-31T11:58:34.543Z,22.27
2022-08-31T12:03:53.537Z,22.22
2022-08-31T12:09:14.332Z,22.07
2022-08-31T12:14:25.615Z,22.30
2022-08-31T12:20:05.684Z,22.33
2022-08-31T12:25:17.579Z,22.05
2022-08-31T12:30:23.681Z,22.19
2022-08-31T12:35:29.981Z,22.48
2022-08-31T12:40:35.710Z,22.08
2022-08-31T12:46:10.116Z,21.43
2022-08-31T12:51:24.292Z,21.70
2022-08-31T12:56:36.867Z,22.02
2022-08-31T13:01:43.036Z,22.44
2022-08-31T13:06:48.323Z,22.43
2022-08-31T13:11:53.237Z,22.32
2022-08-31T13:17:01.521Z,22.45
2022-08-31T13:22:08.862Z,22.74
2022-08-31T13:27:17.778Z,23.33
2022-08-31T13:32:32.774Z,23.93
2022-08-31T13:37:41.886Z,23.94
2022-08-31T13:42:46.798Z,23.47
2022-08-31T13:47:57.661Z,23.15
2022-08-31T13:58:31.478Z,23.10
2022-08-31T14:03:46.680Z,22.75
2022-08-31T14:08:53.303Z,22.80
2022-08-31T14:14:04.244Z,22.69
2022-08-31T14:19:10.754Z,22.72
2022-08-31T14:24:14.969Z,22.59
2022-08-31T14:29:18.110Z,22.52
2022-08-31T14:34:24.835Z,22.13
2022-08-31T14:39:32.892Z,22.36
2022-08-31T14:44:39.450Z,22.42
2022-08-31T14:49:45.320Z,22.86
2022-08-31T14:54:49.728Z,23.14
2022-08-31T14:59:56.843Z,23.43
2022-08-31T15:05:06.672Z,23.39
2022-08-31T15:10:12.757Z,23.40
2022-08-31T15:15:20.417Z,23.35
2022-08-31T15:20:23.499Z,22.96
2022-08-31T15:25:28.817Z,22.63
2022-08-31T15:30:33.779Z,22.60
2022-08-31T15:35:41.666Z,22.51
2022-08-31T15:40:46.455Z,22.53
2022-08-31T15:45:49.430Z,22.66
2022-08-31T15:51:00.571Z,22.96
2022-08-31T15:56:06.747Z,23.20
2022-08-31T16:01:16.097Z,22.97
2022-08-31T16:06:21.520Z,22.98
2022-08-31T16:11:27.436Z,22.84
2022-08-31T16:16:33.589Z,22.34
2022-08-31T16:21:39.247Z,22.14
2022-08-31T16:26:44.950Z,22.15
2022-08-31T16:31:47.909Z,21.98
2022-08-31T16:36:52.919Z,21.89
2022-08-31T16:41:57.113Z,21.82
2022-08-31T16:47:00.145Z,21.81
2022-08-31T16:52:04.594Z,21.74
2022-08-31T16:57:08.903Z,21.61
2022-08-31T17:02:13.643Z,21.45
2022-08-31T17:07:18.471Z,21.42
2022-08-31T17:12:27.164Z,21.18
2022-08-31T17:17:30.642Z,21.15
2022-08-31T17:22:36.093Z,21.13
2022-08-31T17:27:40.621Z,21.17
2022-08-31T17:32:45.223Z,21.22
2022-08-31T17:37:49.913Z,21.20
2022-08-31T17:42:59.246Z,21.16
2022-08-31T17:48:02.922Z,21.14
2022-08-31T17:53:05.883Z,21.07
2022-08-31T17:58:10.440Z,20.87
2022-08-31T18:03:13.322Z,20.83
2022-08-31T18:08:16.202Z,20.69
2022-08-31T18:13:21.584Z,20.37
2022-08-31T18:18:27.256Z,20.13
2022-08-31T18:23:30.137Z,19.86
2022-08-31T18:28:34.435Z,19.73
2022-08-31T18:33:38.172Z,19.63
2022-08-31T18:38:40.989Z,19.46
2022-08-31T18:44:02.997Z,19.36
2022-08-31T18:49:12.145Z,19.24
2022-08-31T18:54:18.286Z,19.12
2022-08-31T18:59:22.500Z,19.06
2022-08-31T19:04:25.472Z,18.98
2022-08-31T19:09:28.757Z,18.84
2022-08-31T19:14:35.528Z,18.68
2022-08-31T19:19:39.059Z,18.72
2022-08-31T19:24:42.545Z,18.68
2022-08-31T19:29:48.070Z,18.56
2022-08-31T19:34:51.099Z,18.46
2022-08-31T19:39:57.044Z,18.41
2022-08-31T19:50:27.445Z,18.13
2022-08-31T19:55:30.268Z,18.10
2022-08-31T20:00:38.815Z,18.08
2022-08-31T20:05:45.979Z,18.00
2022-08-31T20:10:48.811Z,17.96
2022-08-31T20:15:57.036Z,17.85
2022-08-31T20:21:02.729Z,17.75
2022-08-31T20:26:12.094Z,17.73
2022-08-31T20:31:16.958Z,17.57
2022-08-31T20:36:29.951Z,17.48
2022-08-31T20:41:35.550Z,17.43
2022-08-31T20:47:02.505Z,17.29
2022-08-31T20:52:05.728Z,17.30
2022-08-31T20:57:13.384Z,17.29
2022-08-31T21:02:20.050Z,17.12
2022-08-31T21:07:23.653Z,17.14
2022-08-31T21:12:27.979Z,17.12
2022-08-31T21:17:32.736Z,17.05
2022-08-31T21:22:37.531Z,17.01
2022-08-31T21:27:40.672Z,16.88
2022-08-31T21:32:45.366Z,16.89
2022-08-31T21:37:48.171Z,16.87
2022-08-31T21:42:51.015Z,16.80
2022-08-31T21:47:55.175Z,16.69
2022-08-31T21:53:00.435Z,16.76
2022-08-31T21:58:03.528Z,16.73
2022-08-31T22:03:07.937Z,16.69
2022-08-31T22:08:11.208Z,16.62
2022-08-31T22:13:14.425Z,16.54
2022-08-31T22:18:59.037Z,16.48
2022-08-31T22:23:41.645Z,16.35
2022-08-31T22:28:46.253Z,16.34
2022-08-31T22:33:51.313Z,16.19
2022-08-31T22:38:55.968Z,16.22
2022-08-31T22:43:58.884Z,16.27
2022-08-31T22:49:03.490Z,16.29
2022-08-31T22:54:06.744Z,16.04
2022-08-31T22:59:12.459Z,15.96
2022-08-31T23:04:20.249Z,16.22
2022-08-31T23:09:27.588Z,16.15
2022-08-31T23:14:32.126Z,16.04
2022-08-31T23:19:40.296Z,16.12
2022-08-31T23:24:44.663Z,15.95
2022-08-31T23:29:51.289Z,15.99
2022-08-31T23:34:57.501Z,15.85
2022-08-31T23:40:03.396Z,15.80
2022-08-31T23:45:07.489Z,15.73
2022-08-31T23:50:13.980Z,15.67
2022-08-31T23:55:16.833Z,15.64
